Time;durP1;ratioP1;P1;durP2;ratioP2;P2;SDS_P1;SDS_P2;PMS_P1;PMS_P2;Temp;Humidity;BMP_temperature;BMP_pressure;BME280_temperature;BME280_humidity;BME280_pressure;Samples;Min_cycle;Max_cycle;Signal;HPM_P1;HPM_P2
2022/02/21 00:00:33;;;;;;;4.45;2.20;;;;;;;5.50;67.54;96168.52;1780936;79;25719;-87
2022/02/21 00:03:01;;;;;;;4.05;1.60;;;;;;;5.53;67.59;96161.41;1780767;80;25713;-86
2022/02/21 00:05:28;;;;;;;2.20;1.92;;;;;;;5.57;67.56;96153.25;1781017;79;25846;-85
2022/02/21 00:07:55;;;;;;;3.05;1.55;;;;;;;5.61;67.46;96148.31;1781169;79;25732;-87
2022/02/21 00:10:21;;;;;;;6.20;1.87;;;;;;;5.65;67.41;96141.52;1781014;79;28285;-86
2022/02/21 00:12:48;;;;;;;4.35;2.00;;;;;;;5.70;67.43;96151.05;1780989;79;25237;-86
2022/02/21 00:15:17;;;;;;;4.10;2.27;;;;;;;5.73;67.33;96142.09;1781145;79;25775;-85
2022/02/21 00:17:44;;;;;;;2.30;1.80;;;;;;;5.79;67.30;96125.19;1781078;79;25744;-86
2022/02/21 00:20:12;;;;;;;4.87;1.92;;;;;;;5.84;67.22;96121.86;1781060;79;25677;-84
2022/02/21 00:22:38;;;;;;;2.60;1.67;;;;;;;5.89;67.14;96116.73;1781043;79;27561;-84
2022/02/21 00:25:05;;;;;;;2.42;1.62;;;;;;;5.92;67.07;96094.84;1780626;79;25804;-86
2022/02/21 00:27:32;;;;;;;5.83;2.00;;;;;;;5.94;66.99;96090.11;1781002;79;25729;-86
2022/02/21 00:29:58;;;;;;;2.72;1.40;;;;;;;5.96;66.91;96086.70;1780865;79;25934;-85
2022/02/21 00:32:25;;;;;;;1.95;1.60;;;;;;;5.99;66.79;96081.44;1781603;78;25777;-86
2022/02/21 00:34:51;;;;;;;2.25;1.77;;;;;;;6.02;66.76;96066.28;1789454;79;27458;-85
2022/02/21 00:37:18;;;;;;;2.95;2.00;;;;;;;6.04;66.68;96070.37;1789286;78;25779;-85
2022/02/21 00:39:45;;;;;;;3.12;2.12;;;;;;;6.05;66.59;96059.14;1789333;78;25793;-86
2022/02/21 00:42:11;;;;;;;4.10;1.87;;;;;;;6.06;66.50;96054.91;1789254;78;25811;-86
2022/02/21 00:44:39;;;;;;;2.95;2.00;;;;;;;6.07;66.44;96056.55;1789378;78;25657;-85
2022/02/21 00:47:07;;;;;;;3.77;1.85;;;;;;;6.10;66.37;96056.12;1789363;79;26820;-86
2022/02/21 00:49:34;;;;;;;3.87;2.02;;;;;;;6.13;66.27;96049.52;1789457;78;25650;-86
2022/02/21 00:52:02;;;;;;;3.50;2.08;;;;;;;6.11;66.19;96037.67;1789189;78;25628;-86
2022/02/21 00:54:29;;;;;;;3.80;2.17;;;;;;;6.11;66.16;96029.64;1789269;78;26678;-85
2022/02/21 00:56:55;;;;;;;5.78;2.10;;;;;;;6.13;66.12;96026.23;1789354;80;25666;-84
2022/02/21 00:59:22;;;;;;;3.62;2.00;;;;;;;6.14;66.07;96021.17;1789374;78;27486;-87
2022/02/21 01:01:48;;;;;;;3.65;2.00;;;;;;;6.19;66.00;96025.05;1789111;78;26517;-86
2022/02/21 01:04:16;;;;;;;6.17;2.52;;;;;;;6.20;65.94;96017.30;1789465;78;26489;-87
2022/02/21 01:06:43;;;;;;;3.52;2.05;;;;;;;6.21;65.88;96010.91;1789348;78;25908;-86
2022/02/21 01:09:09;;;;;;;3.33;2.20;;;;;;;6.23;65.80;95998.95;1789304;78;25808;-86
2022/02/21 01:11:36;;;;;;;4.05;2.22;;;;;;;6.22;65.75;95995.96;1789049;78;27397;-87
2022/02/21 01:14:03;;;;;;;5.97;2.15;;;;;;;6.25;65.67;95996.05;1789138;78;25645;-86
2022/02/21 01:16:30;;;;;;;4.05;2.30;;;;;;;6.25;65.62;95996.05;1789050;78;25738;-87
2022/02/21 01:18:57;;;;;;;3.72;2.20;;;;;;;6.26;65.56;95993.67;1789295;78;26340;-86
2022/02/21 01:21:23;;;;;;;4.30;2.58;;;;;;;6.27;65.54;95984.60;1789404;78;25738;-86
2022/02/21 01:23:50;;;;;;;2.95;2.30;;;;;;;6.27;65.51;95992.64;1789202;80;28120;-87
2022/02/21 01:26:17;;;;;;;4.30;2.70;;;;;;;6.27;65.44;95980.58;1788976;80;25307;-87
2022/02/21 01:28:43;;;;;;;5.20;2.65;;;;;;;6.27;65.42;95977.38;1788848;78;25685;-87
2022/02/21 01:31:10;;;;;;;4.20;2.70;;;;;;;6.28;65.32;95978.20;1789028;78;25804;-86
2022/02/21 01:33:37;;;;;;;3.02;2.37;;;;;;;6.27;65.25;95968.52;1785592;78;25767;-87
2022/02/21 01:36:04;;;;;;;5.40;3.00;;;;;;;6.26;65.22;95957.50;1780950;79;28151;-87
2022/02/21 01:38:30;;;;;;;3.70;2.67;;;;;;;6.22;65.13;95957.62;1780834;79;25252;-86
2022/02/21 01:40:57;;;;;;;5.58;2.75;;;;;;;6.20;65.13;95948.98;1780951;79;25733;-86
2022/02/21 01:43:23;;;;;;;4.40;2.60;;;;;;;6.16;65.08;95951.82;1780988;79;25785;-86
2022/02/21 01:45:50;;;;;;;3.75;2.42;;;;;;;6.17;65.10;95948.08;1780849;79;26371;-87
2022/02/21 01:48:16;;;;;;;3.33;2.35;;;;;;;6.17;65.04;95946.73;1780932;80;28326;-87
2022/02/21 01:50:43;;;;;;;4.58;2.62;;;;;;;6.16;64.96;95932.52;1780795;79;26441;-85
2022/02/21 01:53:11;;;;;;;4.28;2.90;;;;;;;6.17;64.90;95918.08;1780875;79;25287;-86
2022/02/21 01:55:38;;;;;;;5.03;2.22;;;;;;;6.19;64.86;95917.87;1780923;79;25738;-86
2022/02/21 01:58:07;;;;;;;3.47;2.20;;;;;;;6.17;64.79;95913.25;1781016;79;25651;-86
2022/02/21 02:00:33;;;;;;;6.30;2.75;;;;;;;6.12;64.75;95905.37;1785444;79;27211;-86
2022/02/21 02:03:00;;;;;;;8.78;2.55;;;;;;;6.07;64.69;95896.34;1780895;79;25840;-85
2022/02/21 02:05:27;;;;;;;3.55;2.62;;;;;;;6.02;64.82;95901.03;1780896;79;25646;-85
2022/02/21 02:07:54;;;;;;;22.48;7.97;;;;;;;5.98;64.80;95887.77;1780937;79;25799;-85
2022/02/21 02:10:21;;;;;;;13.98;5.97;;;;;;;5.97;64.85;95891.48;1780974;79;25742;-85
2022/02/21 02:12:48;;;;;;;7.42;3.47;;;;;;;5.89;64.74;95883.73;1748289;80;27577;-86
2022/02/21 02:15:18;;;;;;;5.83;2.80;;;;;;;5.73;64.85;95870.33;1780866;79;25788;-87
2022/02/21 02:17:45;;;;;;;4.67;3.02;;;;;;;5.74;64.91;95861.78;1780973;80;25750;-86
2022/02/21 02:20:13;;;;;;;4.35;2.55;;;;;;;5.77;65.03;95861.34;1780602;79;25766;-86
2022/02/21 02:22:41;;;;;;;5.78;2.85;;;;;;;5.72;64.96;95851.80;1780779;79;25724;-86
2022/02/21 02:25:09;;;;;;;3.72;2.40;;;;;;;5.62;64.99;95850.14;1780769;79;27583;-86
2022/02/21 02:27:35;;;;;;;2.80;2.35;;;;;;;5.58;65.02;95840.89;1780645;79;26225;-85
2022/02/21 02:30:04;;;;;;;2.98;2.10;;;;;;;5.64;65.05;95832.01;1780666;79;25705;-86
2022/02/21 02:32:31;;;;;;;2.33;1.98;;;;;;;5.66;65.01;95824.58;1780809;80;25673;-86
2022/02/21 02:34:57;;;;;;;4.67;2.70;;;;;;;5.66;64.98;95835.30;1787785;78;25793;-85
2022/02/21 02:37:26;;;;;;;4.30;3.00;;;;;;;5.69;64.96;95825.45;1789254;78;28491;-86
2022/02/21 02:39:53;;;;;;;2.87;2.27;;;;;;;5.73;64.92;95819.46;1814589;77;25812;-86
2022/02/21 02:42:21;;;;;;;3.98;2.95;;;;;;;5.77;64.84;95816.66;1821469;77;25683;-86
2022/02/21 02:44:48;;;;;;;3.52;2.37;;;;;;;5.85;64.77;95812.86;1821736;77;25879;-85
2022/02/21 02:47:14;;;;;;;3.15;2.30;;;;;;;5.91;64.72;95805.33;1821769;77;25713;-85
2022/02/21 02:49:43;;;;;;;4.67;2.40;;;;;;;5.96;64.61;95797.44;1821759;77;28752;-86
2022/02/21 02:52:10;;;;;;;4.92;2.55;;;;;;;6.01;64.53;95796.78;1821814;77;25689;-85
2022/02/21 02:54:37;;;;;;;4.28;2.10;;;;;;;6.05;64.45;95800.12;1821940;77;25753;-85
2022/02/21 02:57:04;;;;;;;3.40;2.70;;;;;;;6.09;64.36;95791.95;1821863;77;25826;-85
2022/02/21 02:59:31;;;;;;;2.75;2.42;;;;;;;6.12;64.32;95795.53;1821851;77;25664;-86
2022/02/21 03:01:57;;;;;;;3.45;2.30;;;;;;;6.16;64.26;95791.07;1821725;78;28373;-85
2022/02/21 03:04:24;;;;;;;3.40;2.52;;;;;;;6.19;64.20;95783.91;1801910;78;25775;-86
2022/02/21 03:06:50;;;;;;;4.28;2.47;;;;;;;6.19;64.13;95786.06;1789374;80;25636;-86
2022/02/21 03:09:17;;;;;;;3.52;2.17;;;;;;;6.23;64.13;95781.09;1789337;78;25847;-86
2022/02/21 03:11:43;;;;;;;3.02;1.90;;;;;;;6.27;64.08;95776.93;1789446;78;25849;-85
2022/02/21 03:14:11;;;;;;;3.47;2.30;;;;;;;6.30;64.00;95779.14;1788978;78;27653;-85
2022/02/21 03:16:37;;;;;;;4.40;2.35;;;;;;;6.33;63.94;95776.02;1789295;78;25827;-86
2022/02/21 03:19:04;;;;;;;3.00;1.85;;;;;;;6.35;63.92;95776.62;1789027;78;26336;-86
2022/02/21 03:21:31;;;;;;;3.37;2.30;;;;;;;6.38;63.87;95768.95;1789374;78;25826;-86
2022/02/21 03:23:57;;;;;;;5.20;2.60;;;;;;;6.41;63.81;95764.98;1789366;78;25681;-87
2022/02/21 03:26:24;;;;;;;4.30;2.95;;;;;;;6.43;63.72;95769.60;1789327;79;27579;-86
2022/02/21 03:28:50;;;;;;;3.20;2.30;;;;;;;6.47;63.70;95770.80;1789287;78;25763;-85
2022/02/21 03:31:17;;;;;;;5.90;2.50;;;;;;;6.49;63.63;95774.08;1789388;78;26286;-86
2022/02/21 03:33:44;;;;;;;5.47;2.40;;;;;;;6.53;63.54;95771.22;1789226;78;25825;-85
2022/02/21 03:36:11;;;;;;;6.72;2.58;;;;;;;6.57;63.47;95774.28;1789332;78;25739;-87
2022/02/21 03:38:38;;;;;;;2.92;2.20;;;;;;;6.61;63.35;95774.95;1789299;78;28424;-87
2022/02/21 03:41:04;;;;;;;5.47;2.47;;;;;;;6.66;63.22;95774.26;1789209;78;25668;-86
2022/02/21 03:43:31;;;;;;;2.65;2.15;;;;;;;6.68;63.16;95775.67;1789303;78;25301;-87
2022/02/21 03:45:57;;;;;;;5.75;2.67;;;;;;;6.69;63.12;95778.66;1789305;79;25815;-86
2022/02/21 03:48:24;;;;;;;6.40;2.95;;;;;;;6.71;63.11;95773.89;1789272;78;25771;-87
2022/02/21 03:50:51;;;;;;;5.25;3.00;;;;;;;6.74;63.04;95765.40;1789390;79;27405;-87
2022/02/21 03:53:17;;;;;;;3.60;2.60;;;;;;;6.78;63.02;95753.67;1789222;78;26027;-85
2022/02/21 03:55:45;;;;;;;5.50;2.58;;;;;;;6.79;62.98;95749.42;1789341;78;25699;-85
2022/02/21 03:58:12;;;;;;;7.83;4.33;;;;;;;6.82;62.93;95731.55;1789420;78;26700;-87
2022/02/21 04:00:38;;;;;;;8.13;5.00;;;;;;;6.83;62.97;95732.37;1789334;78;25621;-87
2022/02/21 04:03:05;;;;;;;14.18;7.58;;;;;;;6.83;62.94;95722.45;1789381;78;27411;-84
2022/02/21 04:05:32;;;;;;;2.83;2.12;;;;;;;6.82;62.97;95702.05;1789270;78;26282;-87
2022/02/21 04:07:58;;;;;;;5.00;1.95;;;;;;;6.80;62.96;95716.72;1789167;78;25598;-87
2022/02/21 04:10:25;;;;;;;4.00;2.22;;;;;;;6.81;62.97;95707.11;1789282;80;25673;-87
2022/02/21 04:12:52;;;;;;;3.72;2.35;;;;;;;6.85;62.97;95694.89;1789357;78;25684;-88
2022/02/21 04:15:18;;;;;;;3.83;2.67;;;;;;;6.86;62.93;95692.50;1789000;78;27490;-87
2022/02/21 04:17:51;;;;;;;6.95;2.67;;;;;;;6.88;62.87;95680.73;1789230;78;25874;-87
2022/02/21 04:20:21;;;;;;;5.03;3.00;;;;;;;6.88;62.91;95682.07;1789087;78;26245;-87
2022/02/21 04:22:49;;;;;;;7.53;4.47;;;;;;;6.88;62.91;95672.16;1789102;78;25721;-87
2022/02/21 04:25:15;;;;;;;4.65;2.77;;;;;;;6.88;62.96;95662.22;1789305;78;25802;-87
2022/02/21 04:27:45;;;;;;;4.35;3.00;;;;;;;6.88;62.92;95659.54;1789623;78;28387;-86
2022/02/21 04:30:15;;;;;;;3.08;2.10;;;;;;;6.91;62.89;95645.38;1789208;80;25720;-85
2022/02/21 04:32:43;;;;;;;2.90;1.80;;;;;;;6.93;62.87;95631.22;1789291;78;26367;-88
2022/02/21 04:35:10;;;;;;;2.77;2.00;;;;;;;6.94;62.85;95612.73;1789113;79;25835;-87
2022/02/21 04:37:38;;;;;;;5.45;3.10;;;;;;;6.94;62.89;95591.28;1789248;79;25745;-87
2022/02/21 04:40:08;;;;;;;4.35;2.60;;;;;;;6.94;62.86;95596.13;1789507;78;28440;-87
2022/02/21 04:42:35;;;;;;;4.10;2.37;;;;;;;6.96;62.86;95607.96;1789362;79;25751;-87
2022/02/21 04:45:03;;;;;;;4.30;2.40;;;;;;;6.93;62.84;95599.03;1789368;78;25671;-87
2022/02/21 04:47:30;;;;;;;3.05;2.22;;;;;;;6.93;62.89;95592.33;1789301;78;26576;-86
2022/02/21 04:49:57;;;;;;;3.08;2.15;;;;;;;6.94;62.85;95567.14;1789266;78;26150;-87
2022/02/21 04:52:23;;;;;;;3.45;2.52;;;;;;;6.94;62.84;95564.45;1789306;78;27553;-86
2022/02/21 04:54:50;;;;;;;4.75;2.75;;;;;;;6.92;62.83;95550.45;1789226;78;25688;-88
2022/02/21 04:57:16;;;;;;;7.40;4.00;;;;;;;6.91;62.85;95546.95;1789337;78;25704;-88
2022/02/21 04:59:43;;;;;;;4.62;2.95;;;;;;;6.93;62.84;95544.05;1789312;78;25807;-86
2022/02/21 05:02:10;;;;;;;5.70;3.62;;;;;;;6.93;62.79;95529.30;1789313;78;26277;-87
2022/02/21 05:04:36;;;;;;;4.22;2.37;;;;;;;6.94;62.77;95533.61;1789210;79;28697;-89
2022/02/21 05:07:03;;;;;;;3.10;2.40;;;;;;;6.95;62.73;95531.22;1789129;80;25266;-87
2022/02/21 05:09:30;;;;;;;3.17;2.20;;;;;;;6.96;62.71;95538.22;1789267;78;25687;-87
2022/02/21 05:11:56;;;;;;;7.65;4.72;;;;;;;6.97;62.90;95535.83;1789351;78;26531;-87
2022/02/21 05:14:24;;;;;;;4.58;3.10;;;;;;;7.00;62.79;95525.98;1789255;78;25675;-86
2022/02/21 05:16:52;;;;;;;8.18;4.53;;;;;;;7.02;62.71;95533.25;1789002;78;27404;-85
2022/02/21 05:19:19;;;;;;;7.92;4.40;;;;;;;7.03;62.70;95533.54;1788919;78;26377;-87
2022/02/21 05:21:45;;;;;;;8.00;3.80;;;;;;;7.04;62.64;95533.31;1789309;78;25742;-88
2022/02/21 05:24:12;;;;;;;5.85;3.05;;;;;;;7.04;62.73;95526.60;1789141;78;25832;-87
2022/02/21 05:26:39;;;;;;;5.47;2.87;;;;;;;7.20;62.93;95521.05;1789320;78;25529;-87
2022/02/21 05:29:06;;;;;;;5.17;2.98;;;;;;;7.30;62.86;95527.16;1789295;78;27466;-86
2022/02/21 05:31:33;;;;;;;6.25;3.70;;;;;;;7.35;62.67;95512.52;1789239;78;25742;-87
2022/02/21 05:33:59;;;;;;;6.92;4.03;;;;;;;7.35;62.41;95493.72;1789163;78;25668;-87
2022/02/21 05:36:26;;;;;;;2.67;2.17;;;;;;;7.33;62.31;95489.93;1788895;78;26461;-85
2022/02/21 05:38:52;;;;;;;3.75;2.55;;;;;;;7.30;62.24;95493.61;1789263;78;25469;-86
2022/02/21 05:41:19;;;;;;;6.45;3.25;;;;;;;7.28;62.24;95480.42;1789266;78;27507;-86
2022/02/21 05:43:45;;;;;;;4.65;2.40;;;;;;;7.27;62.17;95473.42;1789214;78;25688;-87
2022/02/21 05:46:12;;;;;;;3.22;1.92;;;;;;;7.26;62.14;95485.20;1789276;79;25648;-86
2022/02/21 05:48:38;;;;;;;6.58;3.77;;;;;;;7.24;62.11;95490.80;1789183;78;25813;-87
2022/02/21 05:51:05;;;;;;;5.62;2.85;;;;;;;7.26;62.07;95473.66;1789268;78;25743;-87
2022/02/21 05:53:32;;;;;;;5.33;3.15;;;;;;;7.27;61.94;95461.87;1789516;78;27508;-87
2022/02/21 05:55:58;;;;;;;4.22;2.37;;;;;;;7.28;61.91;95468.34;1790275;77;25267;-87
2022/02/21 05:58:25;;;;;;;3.60;1.98;;;;;;;7.28;61.80;95476.39;1789260;78;25261;-87
2022/02/21 06:00:51;;;;;;;8.23;3.85;;;;;;;7.32;61.72;95477.56;1789238;78;25821;-87
2022/02/21 06:03:18;;;;;;;7.08;4.25;;;;;;;7.37;61.61;95479.52;1789216;78;25765;-88
2022/02/21 06:05:46;;;;;;;6.08;4.65;;;;;;;7.38;61.52;95484.65;1789281;78;28363;-86
2022/02/21 06:08:13;;;;;;;8.15;4.50;;;;;;;7.39;61.47;95463.98;1789276;80;25835;-87
2022/02/21 06:10:40;;;;;;;5.20;3.08;;;;;;;7.43;61.34;95456.58;1789179;78;26211;-84
2022/02/21 06:13:07;;;;;;;5.85;3.22;;;;;;;7.45;61.15;95442.39;1789145;78;26522;-87
2022/02/21 06:15:34;;;;;;;6.62;3.20;;;;;;;7.50;61.03;95445.69;1789345;79;25712;-87
2022/02/21 06:18:01;;;;;;;5.87;2.92;;;;;;;7.52;60.95;95441.71;1789439;78;27384;-87
2022/02/21 06:20:28;;;;;;;6.42;3.52;;;;;;;7.56;60.75;95437.50;1789082;78;25749;-86
2022/02/21 06:22:55;;;;;;;5.25;2.90;;;;;;;7.58;60.61;95448.01;1789464;80;25794;-87
2022/02/21 06:25:22;;;;;;;3.72;2.05;;;;;;;7.63;60.48;95456.66;1789426;78;25863;-86
2022/02/21 06:27:49;;;;;;;6.10;2.90;;;;;;;7.65;60.40;95467.46;1789522;78;25733;-87
2022/02/21 06:30:16;;;;;;;4.53;2.52;;;;;;;7.68;60.29;95470.20;1789396;78;28152;-86
2022/02/21 06:32:44;;;;;;;4.75;2.12;;;;;;;7.70;60.33;95463.55;1789063;78;25896;-85
2022/02/21 06:35:11;;;;;;;5.80;2.70;;;;;;;7.75;60.11;95484.28;1789360;78;25677;-84
2022/02/21 06:37:49;;;;;;;5.33;3.25;;;;;;;7.79;59.83;95474.70;1789660;80;25818;-88
2022/02/21 06:40:16;;;;;;;4.87;2.77;;;;;;;7.82;59.62;95471.02;1790037;78;25756;-86
2022/02/21 06:42:43;;;;;;;8.45;5.33;;;;;;;7.87;59.57;95487.73;1790050;79;27575;-87
2022/02/21 06:45:10;;;;;;;8.85;4.37;;;;;;;7.91;59.45;95495.08;1789722;78;25791;-87
2022/02/21 06:47:37;;;;;;;5.92;2.60;;;;;;;7.94;59.41;95501.85;1789948;78;26248;-87
2022/02/21 06:50:06;;;;;;;13.62;8.25;;;;;;;7.97;59.32;95491.16;1789872;80;26527;-86
2022/02/21 06:52:33;;;;;;;4.85;3.52;;;;;;;7.99;59.32;95511.33;1789930;78;25764;-84
2022/02/21 06:55:01;;;;;;;4.80;2.65;;;;;;;8.01;59.43;95503.85;1789908;79;27195;-88
2022/02/21 06:57:29;;;;;;;4.20;3.30;;;;;;;7.99;59.42;95492.52;1789830;79;26043;-86
2022/02/21 06:59:55;;;;;;;6.17;3.62;;;;;;;7.98;59.45;95492.23;1789869;79;25745;-87
2022/02/21 07:02:22;;;;;;;3.10;2.52;;;;;;;7.99;59.52;95495.73;1789943;78;26183;-86
2022/02/21 07:04:49;;;;;;;4.35;3.10;;;;;;;7.97;59.40;95497.88;1789979;79;25685;-86
2022/02/21 07:07:15;;;;;;;8.33;3.37;;;;;;;7.97;59.33;95507.28;1789893;79;27339;-86
2022/02/21 07:09:42;;;;;;;5.45;2.50;;;;;;;7.98;59.28;95508.36;1789767;80;25743;-87
2022/02/21 07:12:09;;;;;;;5.20;2.70;;;;;;;7.98;59.28;95510.22;1789890;78;25724;-87
2022/02/21 07:14:36;;;;;;;2.75;2.10;;;;;;;7.99;59.05;95503.27;1789877;79;25810;-85
2022/02/21 07:17:03;;;;;;;7.00;3.00;;;;;;;8.00;58.96;95518.86;1790040;78;25705;-87
2022/02/21 07:19:30;;;;;;;7.28;2.52;;;;;;;8.01;58.82;95501.16;1789929;78;28142;-88
2022/02/21 07:21:56;;;;;;;3.55;2.08;;;;;;;8.03;58.96;95523.23;1789794;79;25788;-88
2022/02/21 07:24:23;;;;;;;2.42;1.50;;;;;;;8.02;58.94;95535.04;1789941;79;25271;-87
2022/02/21 07:26:50;;;;;;;3.40;2.08;;;;;;;8.03;58.80;95503.09;1789779;79;26692;-86
2022/02/21 07:29:16;;;;;;;2.30;1.60;;;;;;;8.04;58.96;95512.78;1789979;79;25700;-86
2022/02/21 07:31:43;;;;;;;3.98;2.12;;;;;;;8.04;59.01;95505.25;1789882;79;27603;-87
2022/02/21 07:34:10;;;;;;;2.72;1.70;;;;;;;8.05;59.02;95492.92;1789847;79;25739;-84
2022/02/21 07:36:36;;;;;;;3.22;1.85;;;;;;;8.06;58.97;95491.86;1783001;78;25874;-88
2022/02/21 07:39:04;;;;;;;3.15;1.70;;;;;;;8.09;59.02;95501.32;1780567;79;25743;-88
2022/02/21 07:41:30;;;;;;;3.22;1.85;;;;;;;8.12;58.94;95486.84;1781040;79;25712;-87
2022/02/21 07:43:57;;;;;;;3.55;1.52;;;;;;;8.17;58.96;95490.98;1780975;79;27398;-88
2022/02/21 07:46:23;;;;;;;2.62;2.27;;;;;;;8.19;58.96;95484.84;1780840;79;25970;-87
2022/02/21 07:48:50;;;;;;;5.58;2.58;;;;;;;8.20;58.91;95481.09;1780866;79;25701;-87
2022/02/21 07:51:17;;;;;;;4.87;2.50;;;;;;;8.24;58.84;95477.38;1780934;79;25749;-85
2022/02/21 07:53:43;;;;;;;3.47;2.10;;;;;;;8.26;58.81;95480.64;1780959;80;25660;-86
2022/02/21 07:56:10;;;;;;;2.80;1.70;;;;;;;8.28;58.73;95468.59;1781005;79;28442;-87
2022/02/21 07:58:37;;;;;;;3.83;1.92;;;;;;;8.31;58.46;95468.64;1780763;79;25788;-86
2022/02/21 08:01:03;;;;;;;3.47;2.00;;;;;;;8.36;58.45;95461.20;1780937;79;25662;-86
2022/02/21 08:03:30;;;;;;;5.72;2.85;;;;;;;8.38;58.34;95457.73;1781323;78;25659;-87
2022/02/21 08:05:57;;;;;;;4.87;2.95;;;;;;;8.43;58.24;95468.59;1781021;78;25758;-85
2022/02/21 08:08:23;;;;;;;4.83;3.00;;;;;;;8.47;58.17;95458.95;1780902;78;27402;-86
2022/02/21 08:10:50;;;;;;;4.42;3.00;;;;;;;8.52;58.10;95476.52;1780813;79;25830;-85
2022/02/21 08:13:17;;;;;;;5.25;3.33;;;;;;;8.56;58.02;95473.64;1781002;78;25719;-86
2022/02/21 08:15:43;;;;;;;4.15;2.70;;;;;;;8.58;57.94;95476.34;1780683;78;25783;-87
2022/02/21 08:18:10;;;;;;;5.22;3.22;;;;;;;8.62;57.89;95475.33;1781006;78;25767;-87
2022/02/21 08:20:37;;;;;;;6.35;3.65;;;;;;;8.63;57.75;95476.96;1780928;78;27332;-84
2022/02/21 08:23:03;;;;;;;3.72;2.55;;;;;;;8.62;57.55;95472.11;1780918;78;25708;-85
2022/02/21 08:25:30;;;;;;;4.30;2.75;;;;;;;8.63;57.54;95479.13;1781066;79;25822;-86
2022/02/21 08:27:57;;;;;;;6.22;3.17;;;;;;;8.63;57.44;95465.67;1780828;78;26472;-87
2022/02/21 08:30:25;;;;;;;5.50;3.15;;;;;;;8.64;57.38;95484.79;1781001;78;25787;-85
2022/02/21 08:32:52;;;;;;;5.83;3.55;;;;;;;8.63;57.31;95478.30;1781001;78;27371;-87
2022/02/21 08:35:19;;;;;;;5.92;3.42;;;;;;;8.61;57.33;95482.58;1780843;78;25959;-86
2022/02/21 08:37:46;;;;;;;5.37;3.70;;;;;;;8.60;57.30;95477.44;1780738;78;26369;-84
2022/02/21 08:40:17;;;;;;;6.12;3.10;;;;;;;8.55;57.30;95486.27;1780957;79;25817;-85
2022/02/21 08:42:44;;;;;;;4.90;3.30;;;;;;;8.53;57.33;95486.22;1781066;79;25745;-86
2022/02/21 08:45:13;;;;;;;6.35;3.30;;;;;;;8.49;57.42;95490.45;1780933;78;27359;-86
2022/02/21 08:47:40;;;;;;;5.80;2.87;;;;;;;8.45;57.67;95495.48;1780787;79;25807;-86
2022/02/21 08:50:12;;;;;;;3.62;2.75;;;;;;;8.40;57.94;95501.33;1781019;78;25635;-87
2022/02/21 08:52:40;;;;;;;;;;;;;;;8.34;58.08;95500.95;1783632;78;26336;-89
2022/02/21 08:55:10;;;;;;;4.78;2.50;;;;;;;8.25;58.52;95497.82;1780725;78;25741;-86
2022/02/21 08:57:38;;;;;;;3.10;1.80;;;;;;;8.15;58.71;95498.99;1780798;78;27342;-86
2022/02/21 09:00:07;;;;;;;1.42;1.27;;;;;;;8.02;59.36;95494.73;1780733;78;25278;-85
2022/02/21 09:02:34;;;;;;;3.70;1.65;;;;;;;7.90;59.92;95526.22;1780937;80;25819;-87
2022/02/21 09:05:01;;;;;;;1.25;1.15;;;;;;;7.80;60.36;95516.63;1781106;79;25712;-86
2022/02/21 09:07:27;;;;;;;1.67;1.05;;;;;;;7.70;61.07;95512.41;1780918;78;25767;-86
2022/02/21 09:09:54;;;;;;;2.35;1.30;;;;;;;7.61;61.27;95485.09;1780967;78;27314;-84
2022/02/21 09:12:21;;;;;;;2.50;1.30;;;;;;;7.52;61.83;95481.98;1780809;78;25724;-91
2022/02/21 09:14:50;;;;;;;3.20;1.80;;;;;;;7.43;62.27;95495.50;1781174;79;25743;-84
2022/02/21 09:17:16;;;;;;;1.30;0.90;;;;;;;7.35;62.57;95489.17;1781924;78;26084;-88
2022/02/21 09:19:44;;;;;;;3.15;1.60;;;;;;;7.29;63.14;95490.63;1781273;79;25581;-90
2022/02/21 09:22:12;;;;;;;2.33;1.50;;;;;;;7.17;63.63;95496.84;1781033;79;28410;-88
2022/02/21 09:24:39;;;;;;;2.55;1.65;;;;;;;7.14;63.90;95473.68;1780972;79;25740;-87
2022/02/21 09:27:06;;;;;;;2.37;1.80;;;;;;;7.10;64.06;95476.56;1780986;79;25708;-87
2022/02/21 09:29:32;;;;;;;5.83;2.95;;;;;;;7.07;64.13;95471.66;1780888;79;25691;-92
2022/02/21 09:31:59;;;;;;;5.20;2.77;;;;;;;7.02;64.43;95471.02;1780748;79;25751;-93
2022/02/21 09:34:26;;;;;;;5.87;3.30;;;;;;;6.95;64.80;95473.55;1781046;80;28267;-91
2022/02/21 09:36:53;;;;;;;5.37;3.20;;;;;;;6.94;64.93;95463.34;1780728;78;25664;-92
2022/02/21 09:39:19;;;;;;;5.35;3.40;;;;;;;6.94;65.20;95455.83;1781114;79;25294;-92
2022/02/21 09:41:46;;;;;;;6.00;3.52;;;;;;;6.94;65.41;95454.48;1781031;79;26263;-92
2022/02/21 09:44:13;;;;;;;5.33;3.02;;;;;;;6.94;65.39;95447.25;1759087;79;25719;-89
2022/02/21 09:46:42;;;;;;;7.28;4.55;;;;;;;6.97;65.79;95450.81;1780949;78;27385;-88
2022/02/21 09:49:09;;;;;;;7.97;4.08;;;;;;;6.99;65.97;95443.35;1780753;78;26245;-85
2022/02/21 09:51:36;;;;;;;5.90;4.35;;;;;;;7.01;66.12;95426.98;1781044;78;25763;-84
2022/02/21 09:54:02;;;;;;;8.75;5.12;;;;;;;7.07;66.00;95422.03;1781139;79;26450;-88
2022/02/21 09:56:29;;;;;;;5.78;4.00;;;;;;;7.10;66.07;95425.59;1780889;78;25672;-86
2022/02/21 09:58:56;;;;;;;5.17;3.95;;;;;;;7.18;66.13;95434.60;1781209;79;27354;-88
2022/02/21 10:01:24;;;;;;;5.92;3.83;;;;;;;7.26;66.08;95430.72;1780963;78;25752;-88
2022/02/21 10:03:54;;;;;;;6.67;5.30;;;;;;;7.31;66.05;95432.17;1781021;79;25826;-84
2022/02/21 10:06:25;;;;;;;6.47;4.10;;;;;;;7.36;65.97;95429.08;1780932;78;25730;-85
2022/02/21 10:09:12;;;;;;;7.50;3.90;;;;;;;7.39;65.81;95425.89;1780901;78;25444;-82
2022/02/21 10:11:42;;;;;;;6.92;3.98;;;;;;;7.40;65.80;95426.70;1781102;78;27371;-86
2022/02/21 10:14:19;;;;;;;6.17;3.90;;;;;;;7.39;65.74;95424.55;1780973;79;25780;-86
2022/02/21 10:16:56;;;;;;;6.22;4.40;;;;;;;7.37;65.70;95419.94;1780479;79;25661;-85
2022/02/21 10:19:30;;;;;;;8.88;5.47;;;;;;;7.34;65.68;95426.33;1781073;78;25714;-86
2022/02/21 10:22:10;;;;;;;8.00;5.10;;;;;;;7.32;65.60;95427.91;1781138;78;25675;-86
2022/02/21 10:24:48;;;;;;;5.83;3.85;;;;;;;7.31;65.55;95422.25;1780866;79;27409;-83
2022/02/21 10:27:26;;;;;;;5.78;3.92;;;;;;;7.32;65.51;95410.47;1780420;78;25721;-83
2022/02/21 10:30:02;;;;;;;6.25;3.75;;;;;;;7.31;65.43;95416.06;1780025;78;25818;-86
2022/02/21 10:32:32;;;;;;;6.90;4.58;;;;;;;7.30;65.35;95422.48;1781118;79;25906;-83
2022/02/21 10:35:20;;;;;;;5.22;3.35;;;;;;;7.30;65.28;95417.94;1781161;78;25754;-82
2022/02/21 10:37:50;;;;;;;3.98;3.45;;;;;;;7.31;65.27;95410.17;1780830;79;27434;-82
2022/02/21 10:40:30;;;;;;;2.90;2.30;;;;;;;7.34;65.22;95400.31;1780722;78;25708;-87
2022/02/21 10:43:22;;;;;;;3.27;2.55;;;;;;;7.38;65.05;95396.59;1781066;79;25706;-83
2022/02/21 10:45:48;;;;;;;3.02;2.37;;;;;;;7.40;64.94;95398.52;1781174;79;25707;-84
2022/02/21 10:48:20;;;;;;;2.67;2.30;;;;;;;7.43;64.85;95409.60;1781164;78;25737;-84
2022/02/21 10:51:02;;;;;;;3.55;2.27;;;;;;;7.47;64.78;95409.42;1781111;78;28395;-83
2022/02/21 10:53:42;;;;;;;3.37;2.30;;;;;;;7.51;64.77;95409.20;1781060;78;25366;-82
2022/02/21 10:56:11;;;;;;;3.10;2.33;;;;;;;7.56;64.53;95402.59;1781237;78;25679;-82
2022/02/21 10:58:38;;;;;;;3.20;2.47;;;;;;;7.58;64.41;95396.47;1759469;80;25694;-85
2022/02/21 11:01:10;;;;;;;2.72;2.40;;;;;;;7.63;64.25;95396.25;1781098;79;25276;-85
2022/02/21 11:03:34;;;;;;;5.15;2.62;;;;;;;7.67;64.29;95392.03;1780279;80;27330;-85
2022/02/21 11:06:01;;;;;;;3.62;2.40;;;;;;;7.72;64.11;95398.33;1781072;78;26281;-82
2022/02/21 11:08:31;;;;;;;3.60;2.10;;;;;;;7.78;64.09;95401.90;1780968;78;25214;-83
2022/02/21 11:11:06;;;;;;;3.00;2.10;;;;;;;7.81;63.98;95400.08;1790755;79;26461;-84
2022/02/21 11:13:35;;;;;;;3.92;1.77;;;;;;;7.82;63.82;95406.55;1780992;78;25850;-83
2022/02/21 11:16:02;;;;;;;2.75;2.12;;;;;;;7.82;63.72;95409.77;1780969;79;28182;-84
2022/02/21 11:18:30;;;;;;;3.95;2.00;;;;;;;7.82;63.47;95411.11;1780941;79;25874;-82
2022/02/21 11:20:57;;;;;;;2.87;2.00;;;;;;;7.80;63.47;95416.72;1781067;79;25649;-85
2022/02/21 11:23:27;;;;;;;5.03;2.22;;;;;;;7.75;63.19;95424.67;1780925;79;25733;-82
2022/02/21 11:26:17;;;;;;;3.87;2.20;;;;;;;7.74;63.20;95415.52;1781187;79;25697;-82
2022/02/21 11:28:58;;;;;;;3.27;2.30;;;;;;;7.76;63.23;95406.69;1781056;79;27399;-83
2022/02/21 11:31:33;;;;;;;3.37;2.00;;;;;;;7.78;63.24;95401.90;1780955;79;25736;-85
2022/02/21 11:34:06;;;;;;;6.85;3.17;;;;;;;7.82;63.27;95397.68;1748619;80;26425;-84
2022/02/21 11:36:34;;;;;;;6.17;2.95;;;;;;;7.85;63.19;95413.28;1780868;78;26460;-88
2022/02/21 11:39:21;;;;;;;4.97;3.12;;;;;;;7.85;63.12;95415.97;1780772;79;25842;-89
2022/02/21 11:42:08;;;;;;;3.77;2.72;;;;;;;7.83;63.16;95418.11;1780944;79;27349;-85
2022/02/21 11:44:48;;;;;;;3.72;2.72;;;;;;;7.81;63.14;95434.47;1780756;80;25899;-86